PWSweather.com
Personal Weather Stations
Station Observations
KMAMEDFI2
Medfield, MA 02052

Medfield, MA 02052

Lat: 42.1900822, Lon: -71.3296889

Elevation: 138

Station Type: Rainwise WS MK-III

http://www.medfieldweather.com

High Low Average
Temperature 65.5°F18.6°C 45.8°F7.7°C 54.0°F12.2°C
Dew Point 56.8°F13.8°C 39.9°F4.4°C 46.5°F8.1°C
Winds 11.5 mph 18.5 kmh Calm Calm 3.0 mph SW4.8 kmh SW
Wind Gusts 15.0 mph24.1 kmh -- 5.0 mph8.0 kmh
Humidity 97% 45% 79%
Pressure 29.91 in1012.9 mb 29.70 in1005.8 mb -
Precipitation 0.06 in1.5 mm - -
Hour Temp Dew Point Humidity Winds Wind Gusts Pressure Precip Precip Rate Daily Precip Total
12:00 AM 49.3°F9.6°C 48.5°F9.2°C 97% 1.2 mph SSW1.9 kmh SSW 1.2 mph1.9 kmh 29.86 in1011.2 mb - 0.00 in0.0 mm 0.00 in0.0 mm
12:10 AM 49.3°F9.6°C 48.5°F9.2°C 97% 2.3 mph SE3.7 kmh SE 2.3 mph3.7 kmh 29.87 in1011.5 mb - 0.00 in0.0 mm 0.00 in0.0 mm
12:20 AM 49.3°F9.6°C 48.5°F9.2°C 97% Calm Calm -- 29.86 in1011.2 mb - 0.00 in0.0 mm 0.00 in0.0 mm
12:30 AM 49.2°F9.6°C 48.4°F9.1°C 97% 1.2 mph WSW1.9 kmh WSW 1.2 mph1.9 kmh 29.86 in1011.2 mb - 0.00 in0.0 mm 0.00 in0.0 mm
12:40 AM 49.1°F9.5°C 48.3°F9.1°C 97% 1.2 mph ESE1.9 kmh ESE 2.3 mph3.7 kmh 29.84 in1010.5 mb - 0.01 in0.3 mm 0.01 in0.3 mm
12:50 AM 48.8°F9.3°C 48.0°F8.9°C 97% 1.2 mph ESE1.9 kmh ESE 2.3 mph3.7 kmh 29.83 in1010.2 mb - 0.01 in0.3 mm 0.01 in0.3 mm
01:00 AM 48.8°F9.3°C 48.0°F8.9°C 97% 2.3 mph S3.7 kmh S 2.3 mph3.7 kmh 29.83 in1010.2 mb - 0.02 in0.5 mm 0.02 in0.5 mm
01:10 AM 48.8°F9.3°C 48.0°F8.9°C 97% 2.3 mph ESE3.7 kmh ESE 2.3 mph3.7 kmh 29.81 in1009.5 mb - 0.02 in0.5 mm 0.02 in0.5 mm
01:20 AM 48.8°F9.3°C 48.0°F8.9°C 97% 2.3 mph ESE3.7 kmh ESE 2.3 mph3.7 kmh 29.80 in1009.1 mb - 0.02 in0.5 mm 0.02 in0.5 mm
01:30 AM 48.8°F9.3°C 48.0°F8.9°C 97% 2.3 mph S3.7 kmh S 2.3 mph3.7 kmh 29.80 in1009.1 mb - 0.02 in0.5 mm 0.02 in0.5 mm
01:40 AM 48.8°F9.3°C 48.0°F8.9°C 97% 3.5 mph S5.6 kmh S 6.9 mph11.1 kmh 29.80 in1009.1 mb - 0.01 in0.3 mm 0.02 in0.5 mm
01:50 AM 48.8°F9.3°C 48.0°F8.9°C 97% 2.3 mph ESE3.7 kmh ESE 2.3 mph3.7 kmh 29.79 in1008.8 mb - 0.01 in0.3 mm 0.02 in0.5 mm
02:00 AM 48.7°F9.3°C 47.9°F8.8°C 97% 1.2 mph SW1.9 kmh SW 2.3 mph3.7 kmh 29.78 in1008.5 mb - 0.00 in0.0 mm 0.02 in0.5 mm
02:10 AM 48.7°F9.3°C 47.9°F8.8°C 97% 3.5 mph SE5.6 kmh SE 5.8 mph9.3 kmh 29.78 in1008.5 mb - 0.00 in0.0 mm 0.02 in0.5 mm
02:20 AM 48.7°F9.3°C 47.9°F8.8°C 97% 2.3 mph SE3.7 kmh SE 2.3 mph3.7 kmh 29.78 in1008.5 mb - 0.00 in0.0 mm 0.02 in0.5 mm
02:30 AM 48.7°F9.3°C 47.9°F8.8°C 97% 2.3 mph SSE3.7 kmh SSE 5.8 mph9.3 kmh 29.77 in1008.1 mb - 0.00 in0.0 mm 0.02 in0.5 mm
02:40 AM 48.7°F9.3°C 47.9°F8.8°C 97% 3.5 mph SE5.6 kmh SE 8.1 mph13.0 kmh 29.78 in1008.5 mb - 0.00 in0.0 mm 0.02 in0.5 mm
02:50 AM 48.7°F9.3°C 47.9°F8.8°C 97% 3.5 mph S5.6 kmh S 2.3 mph3.7 kmh 29.77 in1008.1 mb - 0.00 in0.0 mm 0.02 in0.5 mm
03:00 AM 48.8°F9.3°C 48.0°F8.9°C 97% 2.3 mph S3.7 kmh S 8.1 mph13.0 kmh 29.76 in1007.8 mb - 0.01 in0.3 mm 0.03 in0.8 mm
03:10 AM 48.8°F9.3°C 48.0°F8.9°C 97% 3.5 mph SSE5.6 kmh SSE 6.9 mph11.1 kmh 29.76 in1007.8 mb - 0.01 in0.3 mm 0.03 in0.8 mm
03:20 AM 48.8°F9.3°C 48.0°F8.9°C 97% 3.5 mph S5.6 kmh S 5.8 mph9.3 kmh 29.74 in1007.1 mb - 0.01 in0.3 mm 0.03 in0.8 mm
03:30 AM 48.8°F9.3°C 48.0°F8.9°C 97% 3.5 mph SW5.6 kmh SW 10.4 mph16.7 kmh 29.74 in1007.1 mb - 0.02 in0.5 mm 0.04 in1.0 mm
03:40 AM 48.9°F9.4°C 48.1°F8.9°C 97% 1.2 mph SE1.9 kmh SE 1.2 mph1.9 kmh 29.74 in1007.1 mb - 0.03 in0.8 mm 0.05 in1.3 mm
03:50 AM 48.9°F9.4°C 48.1°F8.9°C 97% 3.5 mph SE5.6 kmh SE 5.8 mph9.3 kmh 29.73 in1006.8 mb - 0.03 in0.8 mm 0.05 in1.3 mm
04:00 AM 49.1°F9.5°C 48.3°F9.1°C 97% 2.3 mph S3.7 kmh S 2.3 mph3.7 kmh 29.72 in1006.4 mb - 0.02 in0.5 mm 0.05 in1.3 mm
04:10 AM 49.2°F9.6°C 48.4°F9.1°C 97% 2.3 mph E3.7 kmh E 3.5 mph5.6 kmh 29.72 in1006.4 mb - 0.02 in0.5 mm 0.05 in1.3 mm
04:20 AM 49.2°F9.6°C 48.4°F9.1°C 97% 2.3 mph SE3.7 kmh SE 2.3 mph3.7 kmh 29.72 in1006.4 mb - 0.02 in0.5 mm 0.05 in1.3 mm
04:30 AM 49.3°F9.6°C 48.5°F9.2°C 97% 1.2 mph S1.9 kmh S 2.3 mph3.7 kmh 29.71 in1006.1 mb - 0.01 in0.3 mm 0.05 in1.3 mm
04:40 AM 49.3°F9.6°C 48.5°F9.2°C 97% 2.3 mph SE3.7 kmh SE 2.3 mph3.7 kmh 29.71 in1006.1 mb - 0.00 in0.0 mm 0.05 in1.3 mm
04:50 AM 49.4°F9.7°C 48.6°F9.2°C 97% 2.3 mph S3.7 kmh S 2.3 mph3.7 kmh 29.70 in1005.8 mb - 0.00 in0.0 mm 0.05 in1.3 mm
05:00 AM 49.5°F9.7°C 48.7°F9.3°C 97% Calm Calm 1.2 mph1.9 kmh 29.70 in1005.8 mb - 0.00 in0.0 mm 0.05 in1.3 mm
05:10 AM 49.5°F9.7°C 48.7°F9.3°C 97% 1.2 mph SE1.9 kmh SE 2.3 mph3.7 kmh 29.70 in1005.8 mb - 0.00 in0.0 mm 0.05 in1.3 mm
05:20 AM 49.6°F9.8°C 48.8°F9.3°C 97% 2.3 mph E3.7 kmh E 2.3 mph3.7 kmh 29.70 in1005.8 mb - 0.00 in0.0 mm 0.05 in1.3 mm
05:30 AM 49.6°F9.8°C 48.8°F9.3°C 97% 1.2 mph SW1.9 kmh SW 1.2 mph1.9 kmh 29.70 in1005.8 mb - 0.00 in0.0 mm 0.05 in1.3 mm
05:40 AM 49.7°F9.8°C 48.9°F9.4°C 97% 2.3 mph SSE3.7 kmh SSE 2.3 mph3.7 kmh 29.70 in1005.8 mb - 0.00 in0.0 mm 0.05 in1.3 mm
05:50 AM 49.7°F9.8°C 48.9°F9.4°C 97% Calm Calm -- 29.70 in1005.8 mb - 0.00 in0.0 mm 0.05 in1.3 mm
06:00 AM 49.7°F9.8°C 48.9°F9.4°C 97% Calm Calm -- 29.70 in1005.8 mb - 0.00 in0.0 mm 0.05 in1.3 mm
06:10 AM 49.7°F9.8°C 48.9°F9.4°C 97% 1.2 mph SSE1.9 kmh SSE 2.3 mph3.7 kmh 29.70 in1005.8 mb - 0.00 in0.0 mm 0.05 in1.3 mm
06:20 AM 49.8°F9.9°C 49.0°F9.4°C 97% 1.2 mph S1.9 kmh S 1.2 mph1.9 kmh 29.70 in1005.8 mb - 0.00 in0.0 mm 0.05 in1.3 mm
06:30 AM 49.8°F9.9°C 49.0°F9.4°C 97% Calm Calm -- 29.70 in1005.8 mb - 0.00 in0.0 mm 0.05 in1.3 mm
06:40 AM 49.9°F9.9°C 49.1°F9.5°C 97% Calm Calm -- 29.70 in1005.8 mb - 0.00 in0.0 mm 0.05 in1.3 mm
06:50 AM 50.1°F10.1°C 49.3°F9.6°C 97% Calm Calm -- 29.70 in1005.8 mb - 0.00 in0.0 mm 0.05 in1.3 mm
07:00 AM 50.2°F10.1°C 49.4°F9.7°C 97% 1.2 mph NW1.9 kmh NW -- 29.70 in1005.8 mb - 0.00 in0.0 mm 0.05 in1.3 mm
07:10 AM 50.3°F10.2°C 49.5°F9.7°C 97% 2.3 mph SW3.7 kmh SW 2.3 mph3.7 kmh 29.70 in1005.8 mb - 0.00 in0.0 mm 0.05 in1.3 mm
07:20 AM 50.5°F10.3°C 49.7°F9.8°C 97% 2.3 mph NNW3.7 kmh NNW 2.3 mph3.7 kmh 29.70 in1005.8 mb - 0.00 in0.0 mm 0.05 in1.3 mm
07:30 AM 50.7°F10.4°C 49.9°F9.9°C 97% Calm Calm 2.3 mph3.7 kmh 29.70 in1005.8 mb - 0.00 in0.0 mm 0.05 in1.3 mm
07:40 AM 50.8°F10.4°C 50.0°F10.0°C 97% 1.2 mph WSW1.9 kmh WSW 1.2 mph1.9 kmh 29.71 in1006.1 mb - 0.00 in0.0 mm 0.05 in1.3 mm
07:50 AM 50.9°F10.5°C 50.1°F10.1°C 97% 1.2 mph SW1.9 kmh SW 5.8 mph9.3 kmh 29.71 in1006.1 mb - 0.00 in0.0 mm 0.05 in1.3 mm
08:00 AM 51.0°F10.6°C 50.1°F10.1°C 97% 1.2 mph W1.9 kmh W 2.3 mph3.7 kmh 29.71 in1006.1 mb - 0.00 in0.0 mm 0.05 in1.3 mm
08:10 AM 51.1°F10.6°C 50.3°F10.2°C 97% 3.5 mph SW5.6 kmh SW 5.8 mph9.3 kmh 29.71 in1006.1 mb - 0.01 in0.3 mm 0.06 in1.5 mm
08:20 AM 51.1°F10.6°C 50.3°F10.2°C 97% 2.3 mph SW3.7 kmh SW 2.3 mph3.7 kmh 29.71 in1006.1 mb - 0.01 in0.3 mm 0.06 in1.5 mm
08:30 AM 51.4°F10.8°C 50.6°F10.3°C 97% 1.2 mph W1.9 kmh W 2.3 mph3.7 kmh 29.71 in1006.1 mb - 0.01 in0.3 mm 0.06 in1.5 mm
08:40 AM 51.7°F10.9°C 50.9°F10.5°C 97% 2.3 mph NW3.7 kmh NW 2.3 mph3.7 kmh 29.71 in1006.1 mb - 0.01 in0.3 mm 0.06 in1.5 mm
08:50 AM 52.0°F11.1°C 51.2°F10.7°C 97% 2.3 mph WSW3.7 kmh WSW 1.2 mph1.9 kmh 29.71 in1006.1 mb - 0.01 in0.3 mm 0.06 in1.5 mm
09:00 AM 52.5°F11.4°C 51.7°F10.9°C 97% 4.6 mph SW7.4 kmh SW 2.3 mph3.7 kmh 29.72 in1006.4 mb - 0.01 in0.3 mm 0.06 in1.5 mm
09:10 AM 53.1°F11.7°C 52.3°F11.3°C 97% 2.3 mph SW3.7 kmh SW 2.3 mph3.7 kmh 29.72 in1006.4 mb - 0.00 in0.0 mm 0.06 in1.5 mm
09:20 AM 54.1°F12.3°C 53.2°F11.8°C 97% 1.2 mph WSW1.9 kmh WSW 2.3 mph3.7 kmh 29.72 in1006.4 mb - 0.00 in0.0 mm 0.06 in1.5 mm
09:30 AM 55.8°F13.2°C 55.0°F12.8°C 97% 6.9 mph WSW11.1 kmh WSW 9.2 mph14.8 kmh 29.72 in1006.4 mb - 0.00 in0.0 mm 0.06 in1.5 mm
09:40 AM 56.7°F13.7°C 55.6°F13.1°C 96% 4.6 mph WSW7.4 kmh WSW 8.1 mph13.0 kmh 29.73 in1006.8 mb - 0.00 in0.0 mm 0.06 in1.5 mm
09:50 AM 58.0°F14.4°C 55.4°F13.0°C 91% 3.5 mph NNW5.6 kmh NNW 3.5 mph5.6 kmh 29.73 in1006.8 mb - 0.00 in0.0 mm 0.06 in1.5 mm
10:00 AM 59.3°F15.2°C 55.7°F13.2°C 88% 2.3 mph W3.7 kmh W 2.3 mph3.7 kmh 29.74 in1007.1 mb - 0.00 in0.0 mm 0.06 in1.5 mm
10:10 AM 58.5°F14.7°C 54.9°F12.7°C 88% 1.2 mph WSW1.9 kmh WSW 1.2 mph1.9 kmh 29.74 in1007.1 mb - 0.00 in0.0 mm 0.06 in1.5 mm
10:20 AM 58.9°F14.9°C 56.3°F13.5°C 91% 2.3 mph SE3.7 kmh SE 2.3 mph3.7 kmh 29.73 in1006.8 mb - 0.00 in0.0 mm 0.06 in1.5 mm
10:30 AM 60.7°F15.9°C 56.8°F13.8°C 87% 2.3 mph NNE3.7 kmh NNE 3.5 mph5.6 kmh 29.73 in1006.8 mb - 0.00 in0.0 mm 0.06 in1.5 mm
10:40 AM 61.3°F16.3°C 56.1°F13.4°C 83% 4.6 mph W7.4 kmh W 5.8 mph9.3 kmh 29.74 in1007.1 mb - 0.00 in0.0 mm 0.06 in1.5 mm
10:50 AM 60.7°F15.9°C 55.2°F12.9°C 82% 3.5 mph NE5.6 kmh NE 5.8 mph9.3 kmh 29.74 in1007.1 mb - 0.00 in0.0 mm 0.06 in1.5 mm
11:00 AM 61.8°F16.6°C 55.3°F12.9°C 79% 3.5 mph SE5.6 kmh SE 5.8 mph9.3 kmh 29.74 in1007.1 mb - 0.00 in0.0 mm 0.06 in1.5 mm
11:10 AM 61.4°F16.3°C 53.0°F11.7°C 74% 3.5 mph WNW5.6 kmh WNW 5.8 mph9.3 kmh 29.75 in1007.5 mb - 0.00 in0.0 mm 0.06 in1.5 mm
11:20 AM 61.6°F16.4°C 53.3°F11.8°C 74% 4.6 mph W7.4 kmh W 11.5 mph18.5 kmh 29.74 in1007.1 mb - 0.00 in0.0 mm 0.06 in1.5 mm
11:30 AM 61.0°F16.1°C 47.9°F8.8°C 62% 6.9 mph WSW11.1 kmh WSW 10.4 mph16.7 kmh 29.74 in1007.1 mb - 0.00 in0.0 mm 0.06 in1.5 mm
11:40 AM 62.6°F17.0°C 47.1°F8.4°C 57% 11.5 mph WSW18.5 kmh WSW 15.0 mph24.1 kmh 29.75 in1007.5 mb - 0.00 in0.0 mm 0.06 in1.5 mm
11:50 AM 62.8°F17.1°C 46.9°F8.3°C 56% 5.8 mph WSW9.3 kmh WSW 5.8 mph9.3 kmh 29.75 in1007.5 mb - 0.00 in0.0 mm 0.06 in1.5 mm
12:00 PM 63.7°F17.6°C 46.7°F8.2°C 54% 6.9 mph W11.1 kmh W 9.2 mph14.8 kmh 29.75 in1007.5 mb - 0.00 in0.0 mm 0.06 in1.5 mm
12:10 PM 63.7°F17.6°C 44.7°F7.1°C 50% 6.9 mph SW11.1 kmh SW 10.4 mph16.7 kmh 29.75 in1007.5 mb - 0.00 in0.0 mm 0.06 in1.5 mm
12:20 PM 63.9°F17.7°C 45.4°F7.4°C 51% 6.9 mph W11.1 kmh W 9.2 mph14.8 kmh 29.76 in1007.8 mb - 0.00 in0.0 mm 0.06 in1.5 mm
12:30 PM 63.4°F17.4°C 46.5°F8.1°C 54% 6.9 mph SW11.1 kmh SW 13.8 mph22.2 kmh 29.76 in1007.8 mb - 0.00 in0.0 mm 0.06 in1.5 mm
12:40 PM 63.7°F17.6°C 45.3°F7.4°C 51% 3.5 mph NE5.6 kmh NE 2.3 mph3.7 kmh 29.76 in1007.8 mb - 0.00 in0.0 mm 0.06 in1.5 mm
12:50 PM 64.4°F18.0°C 45.9°F7.7°C 51% 5.8 mph WNW9.3 kmh WNW 11.5 mph18.5 kmh 29.76 in1007.8 mb - 0.00 in0.0 mm 0.06 in1.5 mm
01:00 PM 63.8°F17.7°C 44.3°F6.8°C 49% 6.9 mph W11.1 kmh W 6.9 mph11.1 kmh 29.76 in1007.8 mb - 0.00 in0.0 mm 0.06 in1.5 mm
01:10 PM 64.3°F17.9°C 43.7°F6.5°C 47% 6.9 mph W11.1 kmh W 8.1 mph13.0 kmh 29.76 in1007.8 mb - 0.00 in0.0 mm 0.06 in1.5 mm
01:20 PM 64.3°F17.9°C 45.3°F7.4°C 50% 4.6 mph WSW7.4 kmh WSW 9.2 mph14.8 kmh 29.76 in1007.8 mb - 0.00 in0.0 mm 0.06 in1.5 mm
01:30 PM 64.3°F17.9°C 45.3°F7.4°C 50% 6.9 mph NW11.1 kmh NW 9.2 mph14.8 kmh 29.77 in1008.1 mb - 0.00 in0.0 mm 0.06 in1.5 mm
01:40 PM 63.9°F17.7°C 44.4°F6.9°C 49% 6.9 mph WNW11.1 kmh WNW 11.5 mph18.5 kmh 29.76 in1007.8 mb - 0.00 in0.0 mm 0.06 in1.5 mm
01:50 PM 64.0°F17.8°C 42.8°F6.0°C 46% 8.1 mph WSW13.0 kmh WSW 9.2 mph14.8 kmh 29.76 in1007.8 mb - 0.00 in0.0 mm 0.06 in1.5 mm
02:00 PM 64.0°F17.8°C 43.4°F6.3°C 47% 8.1 mph WSW13.0 kmh WSW 9.2 mph14.8 kmh 29.76 in1007.8 mb - 0.00 in0.0 mm 0.06 in1.5 mm
02:10 PM 64.4°F18.0°C 44.3°F6.8°C 48% 4.6 mph W7.4 kmh W 11.5 mph18.5 kmh 29.76 in1007.8 mb - 0.00 in0.0 mm 0.06 in1.5 mm
02:20 PM 64.9°F18.3°C 43.6°F6.4°C 46% 8.1 mph NW13.0 kmh NW 8.1 mph13.0 kmh 29.77 in1008.1 mb - 0.00 in0.0 mm 0.06 in1.5 mm
02:30 PM 65.0°F18.3°C 44.8°F7.1°C 48% 3.5 mph NW5.6 kmh NW 8.1 mph13.0 kmh 29.77 in1008.1 mb - 0.00 in0.0 mm 0.06 in1.5 mm
02:40 PM 64.3°F17.9°C 42.5°F5.8°C 45% 10.4 mph SW16.7 kmh SW 13.8 mph22.2 kmh 29.77 in1008.1 mb - 0.00 in0.0 mm 0.06 in1.5 mm
02:50 PM 64.7°F18.2°C 43.4°F6.3°C 46% 8.1 mph N13.0 kmh N 9.2 mph14.8 kmh 29.77 in1008.1 mb - 0.00 in0.0 mm 0.06 in1.5 mm
03:00 PM 64.9°F18.3°C 43.6°F6.4°C 46% 5.8 mph NW9.3 kmh NW 6.9 mph11.1 kmh 29.77 in1008.1 mb - 0.00 in0.0 mm 0.06 in1.5 mm
03:10 PM 65.5°F18.6°C 44.7°F7.1°C 47% 5.8 mph WNW9.3 kmh WNW 8.1 mph13.0 kmh 29.77 in1008.1 mb - 0.00 in0.0 mm 0.06 in1.5 mm
03:20 PM 65.2°F18.4°C 43.9°F6.6°C 46% 5.8 mph WSW9.3 kmh WSW 8.1 mph13.0 kmh 29.77 in1008.1 mb - 0.00 in0.0 mm 0.06 in1.5 mm
03:30 PM 64.9°F18.3°C 44.2°F6.8°C 47% 4.6 mph W7.4 kmh W 10.4 mph16.7 kmh 29.78 in1008.5 mb - 0.00 in0.0 mm 0.06 in1.5 mm
07:30 PM 57.2°F14.0°C 41.6°F5.3°C 56% 2.3 mph W3.7 kmh W 3.5 mph5.6 kmh 29.84 in1010.5 mb - 0.00 in0.0 mm 0.06 in1.5 mm
07:40 PM 56.9°F13.8°C 42.3°F5.7°C 58% 1.2 mph WSW1.9 kmh WSW 2.3 mph3.7 kmh 29.85 in1010.8 mb - 0.00 in0.0 mm 0.06 in1.5 mm
07:50 PM 56.6°F13.7°C 42.0°F5.6°C 58% 3.5 mph WSW5.6 kmh WSW 5.8 mph9.3 kmh 29.85 in1010.8 mb - 0.00 in0.0 mm 0.06 in1.5 mm
08:00 PM 55.9°F13.3°C 41.8°F5.4°C 59% 4.6 mph W7.4 kmh W 3.5 mph5.6 kmh 29.86 in1011.2 mb - 0.00 in0.0 mm 0.06 in1.5 mm
08:10 PM 55.5°F13.1°C 41.8°F5.4°C 60% 6.9 mph W11.1 kmh W 10.4 mph16.7 kmh 29.86 in1011.2 mb - 0.00 in0.0 mm 0.06 in1.5 mm
08:20 PM 55.2°F12.9°C 42.0°F5.6°C 61% 3.5 mph NW5.6 kmh NW 8.1 mph13.0 kmh 29.87 in1011.5 mb - 0.00 in0.0 mm 0.06 in1.5 mm
08:30 PM 54.8°F12.7°C 41.6°F5.3°C 61% 8.1 mph WSW13.0 kmh WSW 11.5 mph18.5 kmh 29.88 in1011.9 mb - 0.00 in0.0 mm 0.06 in1.5 mm
08:40 PM 54.5°F12.5°C 41.3°F5.2°C 61% 1.2 mph WNW1.9 kmh WNW 2.3 mph3.7 kmh 29.88 in1011.9 mb - 0.00 in0.0 mm 0.06 in1.5 mm
08:50 PM 54.1°F12.3°C 41.8°F5.4°C 63% 2.3 mph WSW3.7 kmh WSW 2.3 mph3.7 kmh 29.88 in1011.9 mb - 0.00 in0.0 mm 0.06 in1.5 mm
09:00 PM 53.7°F12.1°C 41.8°F5.4°C 64% 3.5 mph WSW5.6 kmh WSW 9.2 mph14.8 kmh 29.89 in1012.2 mb - 0.00 in0.0 mm 0.06 in1.5 mm
09:10 PM 53.3°F11.8°C 41.4°F5.2°C 64% 2.3 mph SW3.7 kmh SW 2.3 mph3.7 kmh 29.90 in1012.5 mb - 0.00 in0.0 mm 0.06 in1.5 mm
09:20 PM 52.8°F11.6°C 41.8°F5.4°C 66% 2.3 mph W3.7 kmh W 5.8 mph9.3 kmh 29.90 in1012.5 mb - 0.00 in0.0 mm 0.06 in1.5 mm
09:30 PM 52.7°F11.5°C 40.9°F4.9°C 64% 5.8 mph WSW9.3 kmh WSW 8.1 mph13.0 kmh 29.90 in1012.5 mb - 0.00 in0.0 mm 0.06 in1.5 mm
09:40 PM 52.4°F11.3°C 41.0°F5.0°C 65% 4.6 mph W7.4 kmh W 3.5 mph5.6 kmh 29.90 in1012.5 mb - 0.00 in0.0 mm 0.06 in1.5 mm
09:50 PM 51.6°F10.9°C 40.6°F4.8°C 66% 5.8 mph NW9.3 kmh NW 11.5 mph18.5 kmh 29.90 in1012.5 mb - 0.00 in0.0 mm 0.06 in1.5 mm
10:00 PM 50.9°F10.5°C 40.7°F4.8°C 68% 3.5 mph W5.6 kmh W 6.9 mph11.1 kmh 29.90 in1012.5 mb - 0.00 in0.0 mm 0.06 in1.5 mm
10:10 PM 50.4°F10.2°C 40.2°F4.6°C 68% 3.5 mph NW5.6 kmh NW 2.3 mph3.7 kmh 29.90 in1012.5 mb - 0.00 in0.0 mm 0.06 in1.5 mm
10:20 PM 49.9°F9.9°C 40.5°F4.7°C 70% 2.3 mph WSW3.7 kmh WSW 3.5 mph5.6 kmh 29.90 in1012.5 mb - 0.00 in0.0 mm 0.06 in1.5 mm
10:30 PM 49.3°F9.6°C 40.7°F4.8°C 72% 1.2 mph W1.9 kmh W 8.1 mph13.0 kmh 29.90 in1012.5 mb - 0.00 in0.0 mm 0.06 in1.5 mm
10:40 PM 48.9°F9.4°C 39.9°F4.4°C 71% 4.6 mph NW7.4 kmh NW 5.8 mph9.3 kmh 29.90 in1012.5 mb - 0.00 in0.0 mm 0.06 in1.5 mm
10:50 PM 48.7°F9.3°C 40.4°F4.7°C 73% 1.2 mph WSW1.9 kmh WSW 1.2 mph1.9 kmh 29.89 in1012.2 mb - 0.00 in0.0 mm 0.06 in1.5 mm
11:00 PM 48.2°F9.0°C 40.6°F4.8°C 75% 1.2 mph SSW1.9 kmh SSW 2.3 mph3.7 kmh 29.89 in1012.2 mb - 0.00 in0.0 mm 0.06 in1.5 mm
11:10 PM 47.8°F8.8°C 39.9°F4.4°C 74% 1.2 mph ESE1.9 kmh ESE 2.3 mph3.7 kmh 29.89 in1012.2 mb - 0.00 in0.0 mm 0.06 in1.5 mm
11:20 PM 46.9°F8.3°C 40.1°F4.5°C 77% 1.2 mph SW1.9 kmh SW 2.3 mph3.7 kmh 29.89 in1012.2 mb - 0.00 in0.0 mm 0.06 in1.5 mm
11:30 PM 46.7°F8.2°C 40.2°F4.6°C 78% Calm Calm 2.3 mph3.7 kmh 29.89 in1012.2 mb - 0.00 in0.0 mm 0.06 in1.5 mm
11:40 PM 46.9°F8.3°C 40.1°F4.5°C 77% 1.2 mph S1.9 kmh S 2.3 mph3.7 kmh 29.89 in1012.2 mb - 0.00 in0.0 mm 0.06 in1.5 mm
11:50 PM 46.8°F8.2°C 40.3°F4.6°C 78% 1.2 mph S1.9 kmh S 2.3 mph3.7 kmh 29.90 in1012.5 mb - 0.00 in0.0 mm 0.06 in1.5 mm